sensor_id;sensor_type;location;lat;lon;timestamp;temperature;humidity
27540;DHT22;15906;52.046;4.724;2023-05-21T00:02:07;14.50;99.90
27540;DHT22;15906;52.046;4.724;2023-05-21T00:04:39;14.60;99.90
27540;DHT22;15906;52.046;4.724;2023-05-21T00:07:07;14.60;99.90
27540;DHT22;15906;52.046;4.724;2023-05-21T00:09:34;14.60;99.90
27540;DHT22;15906;52.046;4.724;2023-05-21T00:11:59;14.50;99.90
27540;DHT22;15906;52.046;4.724;2023-05-21T00:14:25;14.50;99.90
27540;DHT22;15906;52.046;4.724;2023-05-21T00:16:51;14.50;99.90
27540;DHT22;15906;52.046;4.724;2023-05-21T00:19:16;14.40;99.90
27540;DHT22;15906;52.046;4.724;2023-05-21T00:21:42;14.50;99.90
27540;DHT22;15906;52.046;4.724;2023-05-21T00:24:10;14.40;99.90
27540;DHT22;15906;52.046;4.724;2023-05-21T00:26:36;14.50;99.90
27540;DHT22;15906;52.046;4.724;2023-05-21T00:29:01;14.40;99.90
27540;DHT22;15906;52.046;4.724;2023-05-21T00:31:27;14.50;99.90
27540;DHT22;15906;52.046;4.724;2023-05-21T00:33:52;14.50;99.90
27540;DHT22;15906;52.046;4.724;2023-05-21T00:36:18;14.50;99.90
27540;DHT22;15906;52.046;4.724;2023-05-21T00:38:48;14.40;99.90
27540;DHT22;15906;52.046;4.724;2023-05-21T00:41:14;14.60;99.90
27540;DHT22;15906;52.046;4.724;2023-05-21T00:43:41;14.60;99.90
27540;DHT22;15906;52.046;4.724;2023-05-21T00:46:12;14.60;99.90
27540;DHT22;15906;52.046;4.724;2023-05-21T00:48:41;14.60;99.90
27540;DHT22;15906;52.046;4.724;2023-05-21T00:51:07;14.60;99.90
27540;DHT22;15906;52.046;4.724;2023-05-21T00:53:33;14.60;99.90
27540;DHT22;15906;52.046;4.724;2023-05-21T00:56:00;14.60;99.90
27540;DHT22;15906;52.046;4.724;2023-05-21T00:58:26;14.70;99.90
27540;DHT22;15906;52.046;4.724;2023-05-21T01:00:53;14.60;99.90
27540;DHT22;15906;52.046;4.724;2023-05-21T01:03:21;14.60;99.90
27540;DHT22;15906;52.046;4.724;2023-05-21T01:05:49;14.50;99.90
27540;DHT22;15906;52.046;4.724;2023-05-21T01:08:15;14.60;99.90
27540;DHT22;15906;52.046;4.724;2023-05-21T01:10:42;14.70;99.90
27540;DHT22;15906;52.046;4.724;2023-05-21T01:13:08;14.70;99.90
27540;DHT22;15906;52.046;4.724;2023-05-21T01:15:34;14.70;99.90
27540;DHT22;15906;52.046;4.724;2023-05-21T01:18:02;14.70;99.90
27540;DHT22;15906;52.046;4.724;2023-05-21T01:20:28;14.70;99.90
27540;DHT22;15906;52.046;4.724;2023-05-21T01:22:56;14.70;99.90
27540;DHT22;15906;52.046;4.724;2023-05-21T01:25:22;14.70;99.90
27540;DHT22;15906;52.046;4.724;2023-05-21T01:27:52;14.70;99.90
27540;DHT22;15906;52.046;4.724;2023-05-21T01:30:18;14.80;99.90
27540;DHT22;15906;52.046;4.724;2023-05-21T01:35:23;14.80;99.90
27540;DHT22;15906;52.046;4.724;2023-05-21T01:37:58;14.70;99.90
27540;DHT22;15906;52.046;4.724;2023-05-21T01:40:49;14.80;99.90
27540;DHT22;15906;52.046;4.724;2023-05-21T01:43:17;14.80;99.90
27540;DHT22;15906;52.046;4.724;2023-05-21T01:45:44;14.70;99.90
27540;DHT22;15906;52.046;4.724;2023-05-21T01:48:12;14.80;99.90
27540;DHT22;15906;52.046;4.724;2023-05-21T01:50:39;14.80;99.90
27540;DHT22;15906;52.046;4.724;2023-05-21T01:53:05;14.90;99.90
27540;DHT22;15906;52.046;4.724;2023-05-21T01:55:31;14.80;99.90
27540;DHT22;15906;52.046;4.724;2023-05-21T01:57:57;14.80;99.90
27540;DHT22;15906;52.046;4.724;2023-05-21T02:00:25;14.80;99.90
27540;DHT22;15906;52.046;4.724;2023-05-21T02:02:52;14.80;99.90
27540;DHT22;15906;52.046;4.724;2023-05-21T02:05:18;14.90;99.90
27540;DHT22;15906;52.046;4.724;2023-05-21T02:07:44;14.80;99.90
27540;DHT22;15906;52.046;4.724;2023-05-21T02:10:11;14.80;99.90
27540;DHT22;15906;52.046;4.724;2023-05-21T02:12:37;14.80;99.90
27540;DHT22;15906;52.046;4.724;2023-05-21T02:15:03;14.80;99.90
27540;DHT22;15906;52.046;4.724;2023-05-21T02:17:29;14.80;99.90
27540;DHT22;15906;52.046;4.724;2023-05-21T02:20:01;14.80;99.90
27540;DHT22;15906;52.046;4.724;2023-05-21T02:22:36;14.80;99.90
27540;DHT22;15906;52.046;4.724;2023-05-21T02:25:03;14.80;99.90
27540;DHT22;15906;52.046;4.724;2023-05-21T02:27:28;14.80;99.90
27540;DHT22;15906;52.046;4.724;2023-05-21T02:29:56;14.90;99.90
27540;DHT22;15906;52.046;4.724;2023-05-21T02:32:21;14.80;99.90
27540;DHT22;15906;52.046;4.724;2023-05-21T02:34:48;14.80;99.90
27540;DHT22;15906;52.046;4.724;2023-05-21T02:37:14;14.80;99.90
27540;DHT22;15906;52.046;4.724;2023-05-21T02:39:40;14.80;99.90
27540;DHT22;15906;52.046;4.724;2023-05-21T02:42:05;14.90;99.90
27540;DHT22;15906;52.046;4.724;2023-05-21T02:44:31;14.80;99.90
27540;DHT22;15906;52.046;4.724;2023-05-21T02:46:56;14.80;99.90
27540;DHT22;15906;52.046;4.724;2023-05-21T02:49:22;14.80;99.90
27540;DHT22;15906;52.046;4.724;2023-05-21T02:51:47;14.70;99.90
27540;DHT22;15906;52.046;4.724;2023-05-21T02:54:14;14.80;99.90
27540;DHT22;15906;52.046;4.724;2023-05-21T02:56:39;14.90;99.90
27540;DHT22;15906;52.046;4.724;2023-05-21T02:59:05;14.90;99.90
27540;DHT22;15906;52.046;4.724;2023-05-21T03:01:31;14.90;99.90
27540;DHT22;15906;52.046;4.724;2023-05-21T03:03:56;14.80;99.90
27540;DHT22;15906;52.046;4.724;2023-05-21T03:06:22;14.80;99.90
27540;DHT22;15906;52.046;4.724;2023-05-21T03:08:47;14.80;99.90
27540;DHT22;15906;52.046;4.724;2023-05-21T03:11:13;14.90;99.90
27540;DHT22;15906;52.046;4.724;2023-05-21T03:13:39;14.80;99.90
27540;DHT22;15906;52.046;4.724;2023-05-21T03:16:05;14.80;99.90
27540;DHT22;15906;52.046;4.724;2023-05-21T03:18:30;14.80;99.90
27540;DHT22;15906;52.046;4.724;2023-05-21T03:20:56;14.80;99.90
27540;DHT22;15906;52.046;4.724;2023-05-21T03:23:23;14.80;99.90
27540;DHT22;15906;52.046;4.724;2023-05-21T03:25:48;14.80;99.90
27540;DHT22;15906;52.046;4.724;2023-05-21T03:28:15;14.80;99.90
27540;DHT22;15906;52.046;4.724;2023-05-21T03:30:42;14.80;99.90
27540;DHT22;15906;52.046;4.724;2023-05-21T03:33:14;14.80;99.90
27540;DHT22;15906;52.046;4.724;2023-05-21T03:35:39;14.80;99.90
27540;DHT22;15906;52.046;4.724;2023-05-21T03:38:05;14.80;99.90
27540;DHT22;15906;52.046;4.724;2023-05-21T03:40:31;14.80;99.90
27540;DHT22;15906;52.046;4.724;2023-05-21T03:42:56;14.90;99.90
27540;DHT22;15906;52.046;4.724;2023-05-21T03:45:22;14.80;99.90
27540;DHT22;15906;52.046;4.724;2023-05-21T03:47:47;14.70;99.90
27540;DHT22;15906;52.046;4.724;2023-05-21T03:50:13;14.80;99.90
27540;DHT22;15906;52.046;4.724;2023-05-21T03:52:39;14.70;99.90
27540;DHT22;15906;52.046;4.724;2023-05-21T03:55:05;14.70;99.90
27540;DHT22;15906;52.046;4.724;2023-05-21T03:57:31;14.80;99.90
27540;DHT22;15906;52.046;4.724;2023-05-21T03:59:57;14.80;99.90
27540;DHT22;15906;52.046;4.724;2023-05-21T04:02:25;14.80;99.90
27540;DHT22;15906;52.046;4.724;2023-05-21T04:04:51;14.70;99.90
27540;DHT22;15906;52.046;4.724;2023-05-21T04:07:18;14.80;99.90
27540;DHT22;15906;52.046;4.724;2023-05-21T04:09:44;14.80;99.90
27540;DHT22;15906;52.046;4.724;2023-05-21T04:12:10;14.80;99.90
27540;DHT22;15906;52.046;4.724;2023-05-21T04:14:36;14.80;99.90
27540;DHT22;15906;52.046;4.724;2023-05-21T04:17:02;14.80;99.90
27540;DHT22;15906;52.046;4.724;2023-05-21T04:19:30;14.80;99.90
27540;DHT22;15906;52.046;4.724;2023-05-21T04:21:55;14.80;99.90
27540;DHT22;15906;52.046;4.724;2023-05-21T04:24:22;14.80;99.90
27540;DHT22;15906;52.046;4.724;2023-05-21T04:26:48;14.80;99.90
27540;DHT22;15906;52.046;4.724;2023-05-21T04:29:14;14.80;99.90
27540;DHT22;15906;52.046;4.724;2023-05-21T04:31:42;14.80;99.90
27540;DHT22;15906;52.046;4.724;2023-05-21T04:34:08;14.70;99.90
27540;DHT22;15906;52.046;4.724;2023-05-21T04:36:33;14.80;99.90
27540;DHT22;15906;52.046;4.724;2023-05-21T04:38:59;14.80;99.90
27540;DHT22;15906;52.046;4.724;2023-05-21T04:41:25;14.80;99.90
27540;DHT22;15906;52.046;4.724;2023-05-21T04:43:51;14.90;99.90
27540;DHT22;15906;52.046;4.724;2023-05-21T04:46:20;14.90;99.90
27540;DHT22;15906;52.046;4.724;2023-05-21T04:48:52;14.90;99.90
27540;DHT22;15906;52.046;4.724;2023-05-21T04:51:21;14.90;99.90
27540;DHT22;15906;52.046;4.724;2023-05-21T04:53:49;14.90;99.90
27540;DHT22;15906;52.046;4.724;2023-05-21T04:56:17;14.90;99.90
27540;DHT22;15906;52.046;4.724;2023-05-21T04:58:44;14.90;99.90
27540;DHT22;15906;52.046;4.724;2023-05-21T05:01:10;14.90;99.90
27540;DHT22;15906;52.046;4.724;2023-05-21T05:03:37;14.90;99.90
27540;DHT22;15906;52.046;4.724;2023-05-21T05:06:03;15.00;99.90
27540;DHT22;15906;52.046;4.724;2023-05-21T05:08:29;15.00;99.90
27540;DHT22;15906;52.046;4.724;2023-05-21T05:10:54;15.00;99.90
27540;DHT22;15906;52.046;4.724;2023-05-21T05:13:20;15.10;99.90
27540;DHT22;15906;52.046;4.724;2023-05-21T05:15:45;15.00;99.90
27540;DHT22;15906;52.046;4.724;2023-05-21T05:18:11;15.00;99.90
27540;DHT22;15906;52.046;4.724;2023-05-21T05:20:37;15.00;99.90
27540;DHT22;15906;52.046;4.724;2023-05-21T05:23:03;15.00;99.90
27540;DHT22;15906;52.046;4.724;2023-05-21T05:25:28;15.10;99.90
27540;DHT22;15906;52.046;4.724;2023-05-21T05:27:54;15.00;99.90
27540;DHT22;15906;52.046;4.724;2023-05-21T05:30:19;15.10;99.90
27540;DHT22;15906;52.046;4.724;2023-05-21T05:32:45;15.10;99.90
27540;DHT22;15906;52.046;4.724;2023-05-21T05:35:11;15.10;99.90
27540;DHT22;15906;52.046;4.724;2023-05-21T05:37:37;15.20;99.90
27540;DHT22;15906;52.046;4.724;2023-05-21T05:40:03;15.20;99.90
27540;DHT22;15906;52.046;4.724;2023-05-21T05:42:30;15.20;99.90
27540;DHT22;15906;52.046;4.724;2023-05-21T05:44:55;15.20;99.90
27540;DHT22;15906;52.046;4.724;2023-05-21T05:47:21;15.30;99.90
27540;DHT22;15906;52.046;4.724;2023-05-21T05:49:47;15.20;99.90
27540;DHT22;15906;52.046;4.724;2023-05-21T05:52:12;15.30;99.90
27540;DHT22;15906;52.046;4.724;2023-05-21T05:54:38;15.30;99.90
27540;DHT22;15906;52.046;4.724;2023-05-21T05:57:04;15.30;99.90
27540;DHT22;15906;52.046;4.724;2023-05-21T05:59:29;15.30;99.90
27540;DHT22;15906;52.046;4.724;2023-05-21T06:01:55;15.30;99.90
27540;DHT22;15906;52.046;4.724;2023-05-21T06:04:20;15.30;99.90
27540;DHT22;15906;52.046;4.724;2023-05-21T06:06:46;15.30;99.90
27540;DHT22;15906;52.046;4.724;2023-05-21T06:09:12;15.30;99.90
27540;DHT22;15906;52.046;4.724;2023-05-21T06:11:38;15.40;99.90
27540;DHT22;15906;52.046;4.724;2023-05-21T06:14:03;15.40;99.90
27540;DHT22;15906;52.046;4.724;2023-05-21T06:16:29;15.50;99.90
27540;DHT22;15906;52.046;4.724;2023-05-21T06:18:58;15.50;99.90
27540;DHT22;15906;52.046;4.724;2023-05-21T06:21:24;15.50;99.90
27540;DHT22;15906;52.046;4.724;2023-05-21T06:23:49;15.50;99.90
27540;DHT22;15906;52.046;4.724;2023-05-21T06:26:15;15.50;99.90
27540;DHT22;15906;52.046;4.724;2023-05-21T06:28:43;15.50;99.90
27540;DHT22;15906;52.046;4.724;2023-05-21T06:31:08;15.60;99.90
27540;DHT22;15906;52.046;4.724;2023-05-21T06:33:34;15.70;99.90
27540;DHT22;15906;52.046;4.724;2023-05-21T06:35:59;15.70;99.90
27540;DHT22;15906;52.046;4.724;2023-05-21T06:38:25;15.70;99.90
27540;DHT22;15906;52.046;4.724;2023-05-21T06:40:51;15.70;99.90
27540;DHT22;15906;52.046;4.724;2023-05-21T06:43:16;15.60;99.90
27540;DHT22;15906;52.046;4.724;2023-05-21T06:45:42;15.70;99.90
27540;DHT22;15906;52.046;4.724;2023-05-21T06:48:07;15.60;99.90
27540;DHT22;15906;52.046;4.724;2023-05-21T06:50:33;15.70;99.90
27540;DHT22;15906;52.046;4.724;2023-05-21T06:52:59;15.80;99.90
27540;DHT22;15906;52.046;4.724;2023-05-21T06:55:25;15.90;99.90
27540;DHT22;15906;52.046;4.724;2023-05-21T06:57:51;15.90;99.90
27540;DHT22;15906;52.046;4.724;2023-05-21T07:00:16;16.00;99.90
27540;DHT22;15906;52.046;4.724;2023-05-21T07:02:42;16.10;99.90
27540;DHT22;15906;52.046;4.724;2023-05-21T07:05:08;16.10;99.90
27540;DHT22;15906;52.046;4.724;2023-05-21T07:07:34;16.20;99.90
27540;DHT22;15906;52.046;4.724;2023-05-21T07:09:59;16.30;99.90
27540;DHT22;15906;52.046;4.724;2023-05-21T07:12:25;16.40;99.90
27540;DHT22;15906;52.046;4.724;2023-05-21T07:14:51;16.40;99.90
27540;DHT22;15906;52.046;4.724;2023-05-21T07:17:16;16.40;99.90
27540;DHT22;15906;52.046;4.724;2023-05-21T07:19:42;16.50;99.90
27540;DHT22;15906;52.046;4.724;2023-05-21T07:22:07;16.60;99.90
27540;DHT22;15906;52.046;4.724;2023-05-21T07:24:33;16.70;99.90
27540;DHT22;15906;52.046;4.724;2023-05-21T07:26:58;16.80;99.90
27540;DHT22;15906;52.046;4.724;2023-05-21T07:29:24;16.80;99.90
27540;DHT22;15906;52.046;4.724;2023-05-21T07:31:50;16.90;99.90
27540;DHT22;15906;52.046;4.724;2023-05-21T07:34:15;16.90;99.90
27540;DHT22;15906;52.046;4.724;2023-05-21T07:36:41;17.00;99.90
27540;DHT22;15906;52.046;4.724;2023-05-21T07:39:06;17.00;99.90
27540;DHT22;15906;52.046;4.724;2023-05-21T07:41:32;17.10;99.90
27540;DHT22;15906;52.046;4.724;2023-05-21T07:43:57;17.00;99.90
27540;DHT22;15906;52.046;4.724;2023-05-21T07:46:25;17.00;99.90
27540;DHT22;15906;52.046;4.724;2023-05-21T07:48:50;17.10;99.90
27540;DHT22;15906;52.046;4.724;2023-05-21T07:51:16;17.10;99.90
27540;DHT22;15906;52.046;4.724;2023-05-21T07:53:42;17.00;99.90
27540;DHT22;15906;52.046;4.724;2023-05-21T07:56:07;17.00;99.90
27540;DHT22;15906;52.046;4.724;2023-05-21T07:58:33;17.20;99.90
27540;DHT22;15906;52.046;4.724;2023-05-21T08:00:59;17.30;99.90
27540;DHT22;15906;52.046;4.724;2023-05-21T08:03:25;17.30;99.90
27540;DHT22;15906;52.046;4.724;2023-05-21T08:05:52;17.40;99.90
27540;DHT22;15906;52.046;4.724;2023-05-21T08:08:18;17.40;99.90
27540;DHT22;15906;52.046;4.724;2023-05-21T08:10:44;17.50;99.90
27540;DHT22;15906;52.046;4.724;2023-05-21T08:13:11;17.60;99.90
27540;DHT22;15906;52.046;4.724;2023-05-21T08:15:36;17.70;99.90
27540;DHT22;15906;52.046;4.724;2023-05-21T08:18:02;17.70;99.90
27540;DHT22;15906;52.046;4.724;2023-05-21T08:20:28;17.80;99.90
27540;DHT22;15906;52.046;4.724;2023-05-21T08:22:55;17.80;99.90
27540;DHT22;15906;52.046;4.724;2023-05-21T08:25:21;17.80;99.90
27540;DHT22;15906;52.046;4.724;2023-05-21T08:27:47;17.80;99.90
27540;DHT22;15906;52.046;4.724;2023-05-21T08:30:12;17.90;99.90
27540;DHT22;15906;52.046;4.724;2023-05-21T08:32:39;17.90;99.90
27540;DHT22;15906;52.046;4.724;2023-05-21T08:35:04;17.80;99.90
27540;DHT22;15906;52.046;4.724;2023-05-21T08:37:31;17.70;99.90
27540;DHT22;15906;52.046;4.724;2023-05-21T08:39:57;17.80;99.90
27540;DHT22;15906;52.046;4.724;2023-05-21T08:42:34;17.80;99.90
27540;DHT22;15906;52.046;4.724;2023-05-21T08:45:04;18.00;99.90
27540;DHT22;15906;52.046;4.724;2023-05-21T08:47:33;18.00;99.90
27540;DHT22;15906;52.046;4.724;2023-05-21T08:49:59;18.10;99.90
27540;DHT22;15906;52.046;4.724;2023-05-21T08:52:25;18.10;99.90
27540;DHT22;15906;52.046;4.724;2023-05-21T08:54:52;18.20;99.90
27540;DHT22;15906;52.046;4.724;2023-05-21T08:57:19;18.10;99.90
27540;DHT22;15906;52.046;4.724;2023-05-21T08:59:47;18.20;99.90
27540;DHT22;15906;52.046;4.724;2023-05-21T09:02:14;18.20;99.90
27540;DHT22;15906;52.046;4.724;2023-05-21T09:04:44;18.10;99.90
27540;DHT22;15906;52.046;4.724;2023-05-21T09:07:14;18.10;99.90
27540;DHT22;15906;52.046;4.724;2023-05-21T09:09:55;18.00;99.90
27540;DHT22;15906;52.046;4.724;2023-05-21T09:12:23;18.10;99.90
27540;DHT22;15906;52.046;4.724;2023-05-21T09:14:50;18.10;99.90
27540;DHT22;15906;52.046;4.724;2023-05-21T09:17:16;18.20;99.90
27540;DHT22;15906;52.046;4.724;2023-05-21T09:22:35;18.40;99.90
27540;DHT22;15906;52.046;4.724;2023-05-21T09:25:04;18.40;99.90
27540;DHT22;15906;52.046;4.724;2023-05-21T09:27:31;18.70;99.90
27540;DHT22;15906;52.046;4.724;2023-05-21T09:29:57;18.90;99.90
27540;DHT22;15906;52.046;4.724;2023-05-21T09:32:22;19.20;99.90
27540;DHT22;15906;52.046;4.724;2023-05-21T09:34:48;19.40;99.90
27540;DHT22;15906;52.046;4.724;2023-05-21T09:37:15;19.50;99.90
27540;DHT22;15906;52.046;4.724;2023-05-21T09:39:40;19.50;99.90
27540;DHT22;15906;52.046;4.724;2023-05-21T09:42:06;19.60;99.90
27540;DHT22;15906;52.046;4.724;2023-05-21T09:44:33;19.90;99.90
27540;DHT22;15906;52.046;4.724;2023-05-21T09:46:59;20.10;99.90
27540;DHT22;15906;52.046;4.724;2023-05-21T09:49:26;20.30;99.90
27540;DHT22;15906;52.046;4.724;2023-05-21T09:51:58;20.50;99.90
27540;DHT22;15906;52.046;4.724;2023-05-21T09:54:24;20.70;99.90
27540;DHT22;15906;52.046;4.724;2023-05-21T09:56:55;20.70;99.90
27540;DHT22;15906;52.046;4.724;2023-05-21T09:59:22;20.80;99.90
27540;DHT22;15906;52.046;4.724;2023-05-21T10:01:50;21.00;99.90
27540;DHT22;15906;52.046;4.724;2023-05-21T10:04:16;20.90;99.90
27540;DHT22;15906;52.046;4.724;2023-05-21T10:06:42;21.00;99.90
27540;DHT22;15906;52.046;4.724;2023-05-21T10:09:13;21.10;99.90
27540;DHT22;15906;52.046;4.724;2023-05-21T10:11:42;21.20;99.90
27540;DHT22;15906;52.046;4.724;2023-05-21T10:14:17;21.20;99.90
27540;DHT22;15906;52.046;4.724;2023-05-21T10:16:45;21.20;99.90
27540;DHT22;15906;52.046;4.724;2023-05-21T10:19:12;21.20;99.90
27540;DHT22;15906;52.046;4.724;2023-05-21T10:21:38;21.10;99.90
27540;DHT22;15906;52.046;4.724;2023-05-21T10:24:06;21.10;99.90
27540;DHT22;15906;52.046;4.724;2023-05-21T10:26:33;21.00;99.90
27540;DHT22;15906;52.046;4.724;2023-05-21T10:29:01;21.00;99.90
27540;DHT22;15906;52.046;4.724;2023-05-21T10:31:27;21.00;99.90
27540;DHT22;15906;52.046;4.724;2023-05-21T10:33:54;20.90;99.90
27540;DHT22;15906;52.046;4.724;2023-05-21T10:36:21;21.00;99.90
27540;DHT22;15906;52.046;4.724;2023-05-21T10:38:48;21.10;99.90
27540;DHT22;15906;52.046;4.724;2023-05-21T10:41:17;21.10;99.90
27540;DHT22;15906;52.046;4.724;2023-05-21T10:47:10;21.50;99.90
27540;DHT22;15906;52.046;4.724;2023-05-21T10:49:53;21.70;99.90
27540;DHT22;15906;52.046;4.724;2023-05-21T11:00:41;22.40;99.90
27540;DHT22;15906;52.046;4.724;2023-05-21T11:03:10;22.30;99.90
27540;DHT22;15906;52.046;4.724;2023-05-21T11:05:57;22.30;99.90
27540;DHT22;15906;52.046;4.724;2023-05-21T11:09:43;22.50;99.90
27540;DHT22;15906;52.046;4.724;2023-05-21T11:12:09;22.50;99.90
27540;DHT22;15906;52.046;4.724;2023-05-21T11:14:39;22.50;99.90
27540;DHT22;15906;52.046;4.724;2023-05-21T11:19:38;22.40;99.90
27540;DHT22;15906;52.046;4.724;2023-05-21T11:22:09;22.40;99.70
27540;DHT22;15906;52.046;4.724;2023-05-21T11:24:44;22.60;99.30
27540;DHT22;15906;52.046;4.724;2023-05-21T11:27:10;22.80;99.90
27540;DHT22;15906;52.046;4.724;2023-05-21T11:29:39;22.80;99.90
27540;DHT22;15906;52.046;4.724;2023-05-21T11:32:25;22.90;99.90
27540;DHT22;15906;52.046;4.724;2023-05-21T11:35:12;22.90;99.90
27540;DHT22;15906;52.046;4.724;2023-05-21T11:37:38;22.90;99.50
27540;DHT22;15906;52.046;4.724;2023-05-21T11:40:25;22.90;98.80
27540;DHT22;15906;52.046;4.724;2023-05-21T11:42:53;22.90;99.20
27540;DHT22;15906;52.046;4.724;2023-05-21T11:45:29;22.90;98.80
27540;DHT22;15906;52.046;4.724;2023-05-21T11:48:06;22.80;98.80
27540;DHT22;15906;52.046;4.724;2023-05-21T11:50:41;22.90;99.90
27540;DHT22;15906;52.046;4.724;2023-05-21T11:53:15;22.80;98.80
27540;DHT22;15906;52.046;4.724;2023-05-21T11:55:44;22.70;98.50
27540;DHT22;15906;52.046;4.724;2023-05-21T11:58:12;22.60;99.50
27540;DHT22;15906;52.046;4.724;2023-05-21T12:00:39;22.60;99.90
27540;DHT22;15906;52.046;4.724;2023-05-21T12:03:05;22.50;99.60
27540;DHT22;15906;52.046;4.724;2023-05-21T12:05:47;22.40;99.00
27540;DHT22;15906;52.046;4.724;2023-05-21T12:08:22;22.50;99.70
27540;DHT22;15906;52.046;4.724;2023-05-21T12:11:03;22.50;99.90
27540;DHT22;15906;52.046;4.724;2023-05-21T12:13:32;22.50;99.00
27540;DHT22;15906;52.046;4.724;2023-05-21T12:16:40;22.50;99.20
27540;DHT22;15906;52.046;4.724;2023-05-21T12:19:49;22.50;99.40
27540;DHT22;15906;52.046;4.724;2023-05-21T12:22:21;22.50;99.90
27540;DHT22;15906;52.046;4.724;2023-05-21T12:25:09;22.70;99.90
27540;DHT22;15906;52.046;4.724;2023-05-21T12:27:37;23.00;99.90
27540;DHT22;15906;52.046;4.724;2023-05-21T12:30:09;23.00;98.90
27540;DHT22;15906;52.046;4.724;2023-05-21T12:32:45;23.10;99.50
27540;DHT22;15906;52.046;4.724;2023-05-21T12:35:22;23.00;98.70
27540;DHT22;15906;52.046;4.724;2023-05-21T12:37:49;23.00;99.20
27540;DHT22;15906;52.046;4.724;2023-05-21T12:40:15;23.30;99.30
27540;DHT22;15906;52.046;4.724;2023-05-21T12:42:42;23.30;97.80
27540;DHT22;15906;52.046;4.724;2023-05-21T12:45:10;23.10;99.20
27540;DHT22;15906;52.046;4.724;2023-05-21T12:47:38;23.10;99.60
27540;DHT22;15906;52.046;4.724;2023-05-21T12:50:08;23.30;99.20
27540;DHT22;15906;52.046;4.724;2023-05-21T12:52:36;23.40;98.00
27540;DHT22;15906;52.046;4.724;2023-05-21T12:55:04;23.50;99.60
27540;DHT22;15906;52.046;4.724;2023-05-21T12:57:36;23.60;99.90
27540;DHT22;15906;52.046;4.724;2023-05-21T13:00:04;23.70;98.00
27540;DHT22;15906;52.046;4.724;2023-05-21T13:02:42;23.80;98.60
27540;DHT22;15906;52.046;4.724;2023-05-21T13:05:15;23.90;98.10
27540;DHT22;15906;52.046;4.724;2023-05-21T13:07:44;23.80;98.80
27540;DHT22;15906;52.046;4.724;2023-05-21T13:10:15;23.60;97.80
27540;DHT22;15906;52.046;4.724;2023-05-21T13:12:41;23.70;97.80
27540;DHT22;15906;52.046;4.724;2023-05-21T13:15:07;23.30;97.70
27540;DHT22;15906;52.046;4.724;2023-05-21T13:17:33;23.20;99.10
27540;DHT22;15906;52.046;4.724;2023-05-21T13:20:09;23.10;98.90
27540;DHT22;15906;52.046;4.724;2023-05-21T13:25:07;22.60;99.30
27540;DHT22;15906;52.046;4.724;2023-05-21T13:27:33;22.50;99.30
27540;DHT22;15906;52.046;4.724;2023-05-21T13:29:59;22.40;99.60
27540;DHT22;15906;52.046;4.724;2023-05-21T13:32:25;22.20;99.90
27540;DHT22;15906;52.046;4.724;2023-05-21T13:34:51;22.40;99.90
27540;DHT22;15906;52.046;4.724;2023-05-21T13:37:16;22.50;99.70
27540;DHT22;15906;52.046;4.724;2023-05-21T13:39:43;22.70;99.70
27540;DHT22;15906;52.046;4.724;2023-05-21T13:42:09;22.80;99.70
27540;DHT22;15906;52.046;4.724;2023-05-21T13:44:34;22.80;99.80
27540;DHT22;15906;52.046;4.724;2023-05-21T13:47:02;22.90;99.90
27540;DHT22;15906;52.046;4.724;2023-05-21T13:49:27;23.10;99.90
27540;DHT22;15906;52.046;4.724;2023-05-21T13:51:53;23.10;99.40
27540;DHT22;15906;52.046;4.724;2023-05-21T13:54:18;23.00;99.60
27540;DHT22;15906;52.046;4.724;2023-05-21T13:56:44;23.00;99.50
27540;DHT22;15906;52.046;4.724;2023-05-21T13:59:09;23.10;98.80
27540;DHT22;15906;52.046;4.724;2023-05-21T14:01:35;23.10;99.50
27540;DHT22;15906;52.046;4.724;2023-05-21T14:04:01;22.90;98.70
27540;DHT22;15906;52.046;4.724;2023-05-21T14:06:30;22.90;98.70
27540;DHT22;15906;52.046;4.724;2023-05-21T14:08:57;22.70;99.90
27540;DHT22;15906;52.046;4.724;2023-05-21T14:11:23;22.70;99.80
27540;DHT22;15906;52.046;4.724;2023-05-21T14:13:49;22.60;99.10
27540;DHT22;15906;52.046;4.724;2023-05-21T14:16:15;22.60;99.70
27540;DHT22;15906;52.046;4.724;2023-05-21T14:18:41;22.30;99.50
27540;DHT22;15906;52.046;4.724;2023-05-21T14:21:07;22.20;99.90
27540;DHT22;15906;52.046;4.724;2023-05-21T14:23:34;22.20;99.90
27540;DHT22;15906;52.046;4.724;2023-05-21T14:26:00;22.20;99.90
27540;DHT22;15906;52.046;4.724;2023-05-21T14:28:25;22.30;99.80
27540;DHT22;15906;52.046;4.724;2023-05-21T14:30:51;22.30;99.90
27540;DHT22;15906;52.046;4.724;2023-05-21T14:33:17;22.20;99.90
27540;DHT22;15906;52.046;4.724;2023-05-21T14:35:43;22.10;99.90
27540;DHT22;15906;52.046;4.724;2023-05-21T14:38:09;22.00;99.90
27540;DHT22;15906;52.046;4.724;2023-05-21T14:40:35;22.00;99.90
27540;DHT22;15906;52.046;4.724;2023-05-21T14:43:01;22.00;99.90
27540;DHT22;15906;52.046;4.724;2023-05-21T14:45:27;21.90;99.90
27540;DHT22;15906;52.046;4.724;2023-05-21T14:47:52;22.10;99.90
27540;DHT22;15906;52.046;4.724;2023-05-21T14:50:18;22.10;99.90
27540;DHT22;15906;52.046;4.724;2023-05-21T14:52:44;22.00;99.90
27540;DHT22;15906;52.046;4.724;2023-05-21T14:55:10;21.80;99.90
27540;DHT22;15906;52.046;4.724;2023-05-21T14:57:37;21.90;99.90
27540;DHT22;15906;52.046;4.724;2023-05-21T15:00:04;21.80;99.90
27540;DHT22;15906;52.046;4.724;2023-05-21T15:02:32;21.80;99.90
27540;DHT22;15906;52.046;4.724;2023-05-21T15:04:58;21.80;99.90
27540;DHT22;15906;52.046;4.724;2023-05-21T15:07:23;21.70;99.90
27540;DHT22;15906;52.046;4.724;2023-05-21T15:09:49;21.70;99.90
27540;DHT22;15906;52.046;4.724;2023-05-21T15:12:15;21.70;99.90
27540;DHT22;15906;52.046;4.724;2023-05-21T15:14:40;21.70;99.90
27540;DHT22;15906;52.046;4.724;2023-05-21T15:17:06;21.70;99.90
27540;DHT22;15906;52.046;4.724;2023-05-21T15:19:33;21.70;99.90
27540;DHT22;15906;52.046;4.724;2023-05-21T15:21:59;21.70;99.90
27540;DHT22;15906;52.046;4.724;2023-05-21T15:24:25;21.70;99.90
27540;DHT22;15906;52.046;4.724;2023-05-21T15:26:51;21.70;99.90
27540;DHT22;15906;52.046;4.724;2023-05-21T15:29:17;21.60;99.90
27540;DHT22;15906;52.046;4.724;2023-05-21T15:31:42;21.60;99.90
27540;DHT22;15906;52.046;4.724;2023-05-21T15:34:08;21.50;99.90
27540;DHT22;15906;52.046;4.724;2023-05-21T15:36:36;21.50;99.90
27540;DHT22;15906;52.046;4.724;2023-05-21T15:39:01;21.40;99.90
27540;DHT22;15906;52.046;4.724;2023-05-21T15:41:28;21.40;99.90
27540;DHT22;15906;52.046;4.724;2023-05-21T15:43:53;21.40;99.90
27540;DHT22;15906;52.046;4.724;2023-05-21T15:46:19;21.30;99.90
27540;DHT22;15906;52.046;4.724;2023-05-21T15:48:45;21.30;99.90
27540;DHT22;15906;52.046;4.724;2023-05-21T15:51:10;21.30;99.90
27540;DHT22;15906;52.046;4.724;2023-05-21T15:53:36;21.20;99.90
27540;DHT22;15906;52.046;4.724;2023-05-21T15:56:03;21.20;99.90